createdAt,value
2023-05-08T00:00:12.926Z,98846.63
2023-05-08T00:05:18.045Z,98848.81
2023-05-08T00:10:21.558Z,98849.13
2023-05-08T00:15:24.504Z,98847.84
2023-05-08T00:20:29.011Z,98848.69
2023-05-08T00:25:32.107Z,98855.81
2023-05-08T00:30:35.034Z,98857.78
2023-05-08T00:35:41.038Z,98843.53
2023-05-08T00:40:43.975Z,98849.97
2023-05-08T00:45:47.085Z,98848.88
2023-05-08T00:50:52.775Z,98850.13
2023-05-08T00:55:55.818Z,98859.16
2023-05-08T01:00:59.422Z,98856.75
2023-05-08T01:06:04.460Z,98854.63
2023-05-08T01:11:29.397Z,98853.47
2023-05-08T01:16:39.725Z,98855.06
2023-05-08T01:21:51.596Z,98859.25
2023-05-08T01:27:36.519Z,98861.34
2023-05-08T01:32:43.453Z,98861.03
2023-05-08T01:37:52.786Z,98866.00
2023-05-08T01:43:07.197Z,98867.78
2023-05-08T01:48:14.059Z,98868.63
2023-05-08T01:53:23.909Z,98877.34
2023-05-08T01:58:28.691Z,98868.88
2023-05-08T02:03:35.097Z,98867.72
2023-05-08T02:08:38.618Z,98868.84
2023-05-08T02:13:43.409Z,98878.69
2023-05-08T02:18:51.673Z,98881.94
2023-05-08T02:23:57.190Z,98878.97
2023-05-08T02:29:01.415Z,98882.16
2023-05-08T02:34:11.185Z,98885.69
2023-05-08T02:39:27.305Z,98886.78
2023-05-08T02:44:35.622Z,98891.28
2023-05-08T02:49:50.815Z,98895.94
2023-05-08T02:55:07.211Z,98893.25
2023-05-08T03:00:24.311Z,98892.38
2023-05-08T03:05:35.832Z,98895.16
2023-05-08T03:10:44.440Z,98883.59
2023-05-08T03:15:54.655Z,98889.34
2023-05-08T03:21:04.193Z,98900.88
2023-05-08T03:26:13.660Z,98902.00
2023-05-08T03:31:21.910Z,98896.69
2023-05-08T03:36:29.560Z,98895.94
2023-05-08T03:41:37.624Z,98908.06
2023-05-08T03:46:46.879Z,98906.38
2023-05-08T03:52:01.799Z,98905.97
2023-05-08T03:57:07.676Z,98908.78
2023-05-08T04:02:27.590Z,98902.00
2023-05-08T04:07:42.201Z,98901.03
2023-05-08T04:12:56.754Z,98912.53
2023-05-08T04:18:08.913Z,98913.00
2023-05-08T04:23:19.660Z,98910.72
2023-05-08T04:28:28.681Z,98910.00
2023-05-08T04:33:35.753Z,98913.78
2023-05-08T04:38:44.375Z,98921.06
2023-05-08T04:43:53.826Z,98924.72
2023-05-08T04:49:06.507Z,98917.94
2023-05-08T04:54:13.265Z,98923.41
2023-05-08T04:59:21.815Z,98934.69
2023-05-08T05:04:28.882Z,98932.41
2023-05-08T05:09:39.837Z,98941.28
2023-05-08T05:14:55.622Z,98942.34
2023-05-08T05:20:01.481Z,98940.44
2023-05-08T05:25:16.040Z,98953.69
2023-05-08T05:30:21.918Z,98948.53
2023-05-08T05:35:30.412Z,98952.63
2023-05-08T05:40:43.646Z,98952.38
2023-05-08T05:45:52.037Z,98955.50
2023-05-08T05:51:04.144Z,98955.84
2023-05-08T05:56:15.339Z,98957.53
2023-05-08T06:01:23.265Z,98963.22
2023-05-08T06:06:33.561Z,98962.97
2023-05-08T06:11:45.823Z,98972.06
2023-05-08T06:16:55.791Z,98965.63
2023-05-08T06:22:05.644Z,98964.91
2023-05-08T06:27:16.318Z,98967.06
2023-05-08T06:32:23.282Z,98967.06
2023-05-08T06:37:29.963Z,98976.22
2023-05-08T06:42:40.889Z,98971.34
2023-05-08T06:47:51.558Z,98963.22
2023-05-08T06:53:04.830Z,98971.91
2023-05-08T06:58:13.611Z,98977.13
2023-05-08T07:03:23.166Z,98984.41
2023-05-08T07:08:30.535Z,98986.50
2023-05-08T07:13:36.723Z,98979.13
2023-05-08T07:18:42.185Z,98978.91
2023-05-08T07:23:52.382Z,98973.75
2023-05-08T07:28:58.834Z,98970.22
2023-05-08T07:34:06.987Z,98975.28
2023-05-08T07:39:16.612Z,98979.66
2023-05-08T07:44:31.752Z,98981.47
2023-05-08T07:49:42.991Z,98979.88
2023-05-08T07:54:51.636Z,98977.03
2023-05-08T08:00:11.789Z,98984.16
2023-05-08T08:05:20.100Z,98984.06
2023-05-08T08:10:27.569Z,98991.97
2023-05-08T08:15:37.895Z,98995.72
2023-05-08T08:20:43.100Z,98992.28
2023-05-08T08:25:52.758Z,98997.44
2023-05-08T08:30:59.714Z,98999.84
2023-05-08T08:36:12.255Z,98999.16
2023-05-08T08:41:17.276Z,99004.84
2023-05-08T08:46:31.938Z,99001.03
2023-05-08T08:51:45.708Z,98995.28
2023-05-08T08:56:52.877Z,98988.50
2023-05-08T09:02:13.839Z,98993.19
2023-05-08T09:07:23.655Z,98982.50
2023-05-08T09:12:29.902Z,98995.50
2023-05-08T09:17:45.661Z,98988.31
2023-05-08T09:23:01.784Z,98993.41
2023-05-08T09:28:20.471Z,98985.16
2023-05-08T09:33:34.799Z,98985.56
2023-05-08T09:38:50.211Z,98992.59
2023-05-08T09:44:06.733Z,98998.78
2023-05-08T09:49:23.958Z,98996.41
2023-05-08T09:54:33.873Z,98987.59
2023-05-08T09:59:43.388Z,98987.84
2023-05-08T10:04:53.087Z,99001.00
2023-05-08T10:10:11.323Z,99000.78
2023-05-08T10:15:21.176Z,99010.00
2023-05-08T10:20:32.884Z,99006.34
2023-05-08T10:25:48.485Z,99001.28
2023-05-08T10:31:03.548Z,99002.47
2023-05-08T10:36:14.045Z,99005.38
2023-05-08T10:41:20.942Z,98991.97
2023-05-08T10:46:40.922Z,98984.72
2023-05-08T10:51:59.106Z,98983.94
2023-05-08T10:57:14.104Z,98985.13
2023-05-08T11:02:45.331Z,98989.56
2023-05-08T11:08:16.621Z,98993.56
2023-05-08T11:13:32.211Z,98991.59
2023-05-08T11:18:53.097Z,98988.22
2023-05-08T11:24:17.226Z,98986.34
2023-05-08T11:29:23.999Z,98986.56
2023-05-08T11:34:53.415Z,98980.72
2023-05-08T11:40:42.433Z,98982.13
2023-05-08T11:45:52.272Z,98977.91
2023-05-08T11:51:05.370Z,98980.28
2023-05-08T11:56:50.322Z,98975.78
2023-05-08T12:02:07.813Z,98981.41
2023-05-08T12:07:18.657Z,98990.06
2023-05-08T12:12:47.290Z,98982.22
2023-05-08T12:18:09.041Z,98983.28
2023-05-08T12:23:17.331Z,98976.63
2023-05-08T12:28:35.302Z,98978.47
2023-05-08T12:33:46.254Z,98976.06
2023-05-08T12:39:13.471Z,98972.53
2023-05-08T12:44:35.657Z,98961.94
2023-05-08T12:49:49.684Z,98968.53
2023-05-08T12:54:59.439Z,98967.94
2023-05-08T13:00:10.211Z,98960.25
2023-05-08T13:05:20.279Z,98952.72
2023-05-08T13:10:35.111Z,98960.28
2023-05-08T13:15:49.862Z,98956.81
2023-05-08T13:20:58.965Z,98954.22
2023-05-08T13:26:09.557Z,98943.75
2023-05-08T13:31:27.804Z,98935.81
2023-05-08T13:36:39.751Z,98936.41
2023-05-08T13:41:51.026Z,98930.03
2023-05-08T13:47:08.037Z,98934.63
2023-05-08T13:52:20.871Z,98926.25
2023-05-08T13:57:38.378Z,98919.91
2023-05-08T14:02:53.439Z,98922.38
2023-05-08T14:08:05.787Z,98917.75
2023-05-08T14:13:11.625Z,98920.50
2023-05-08T14:18:20.037Z,98918.50
2023-05-08T14:23:25.142Z,98910.25
2023-05-08T14:28:36.132Z,98911.59
2023-05-08T14:33:57.354Z,98909.28
2023-05-08T14:39:19.094Z,98896.88
2023-05-08T14:44:34.832Z,98900.88
2023-05-08T14:49:51.618Z,98895.94
2023-05-08T14:54:59.834Z,98896.44
2023-05-08T15:00:11.136Z,98894.25
2023-05-08T15:05:19.997Z,98897.75
2023-05-08T15:10:28.322Z,98894.53
2023-05-08T15:15:37.414Z,98898.09
2023-05-08T15:20:43.606Z,98889.84
2023-05-08T15:25:54.654Z,98883.25
2023-05-08T15:31:01.199Z,98887.63
2023-05-08T15:36:14.358Z,98887.44
2023-05-08T15:41:23.266Z,98886.97
2023-05-08T15:46:31.082Z,98885.94
2023-05-08T15:51:42.282Z,98885.63
2023-05-08T15:56:48.431Z,98881.28
2023-05-08T16:01:54.296Z,98878.88
2023-05-08T16:07:08.741Z,98879.88
2023-05-08T16:12:21.827Z,98886.09
2023-05-08T16:17:29.183Z,98877.28
2023-05-08T16:22:37.998Z,98882.75
2023-05-08T16:27:43.239Z,98879.41
2023-05-08T16:32:56.785Z,98862.34
2023-05-08T16:38:03.383Z,98862.34
2023-05-08T16:43:16.530Z,98857.53
2023-05-08T16:48:29.459Z,98858.91
2023-05-08T16:53:35.457Z,98859.72
2023-05-08T16:58:40.688Z,98864.50
2023-05-08T17:03:50.339Z,98857.09
2023-05-08T17:08:55.078Z,98852.25
2023-05-08T17:13:57.859Z,98859.13
2023-05-08T17:19:01.515Z,98855.03
2023-05-08T17:24:06.475Z,98860.56
2023-05-08T17:29:09.365Z,98856.44
2023-05-08T17:34:12.812Z,98859.44
2023-05-08T17:39:21.881Z,98864.41
2023-05-08T17:44:24.697Z,98861.56
2023-05-08T17:49:27.622Z,98864.00
2023-05-08T17:54:33.282Z,98854.47
2023-05-08T17:59:36.151Z,98839.34
2023-05-08T18:04:39.017Z,98857.78
2023-05-08T18:09:43.631Z,98852.91
2023-05-08T18:14:47.817Z,98858.13
2023-05-08T18:19:50.593Z,98863.88
2023-05-08T18:24:57.888Z,98867.00
2023-05-08T18:30:00.768Z,98875.53
2023-05-08T18:35:07.376Z,98881.84
2023-05-08T18:40:13.126Z,98876.69
2023-05-08T18:45:17.065Z,98872.72
2023-05-08T18:50:20.395Z,98879.31
2023-05-08T18:55:25.304Z,98876.13
2023-05-08T19:00:28.980Z,98876.84
2023-05-08T19:05:32.038Z,98875.50
2023-05-08T19:10:36.979Z,98876.56
2023-05-08T19:15:40.756Z,98866.50
2023-05-08T19:20:43.673Z,98860.06
2023-05-08T19:25:48.004Z,98863.13
2023-05-08T19:30:50.771Z,98864.72
2023-05-08T19:35:53.591Z,98855.97
2023-05-08T19:40:58.106Z,98853.72
2023-05-08T19:46:04.530Z,98858.41
2023-05-08T19:51:07.894Z,98861.78
2023-05-08T19:56:11.972Z,98868.59
2023-05-08T20:01:14.730Z,98859.59
2023-05-08T20:06:19.081Z,98864.41
2023-05-08T20:11:23.268Z,98857.97
2023-05-08T20:16:26.080Z,98847.38
2023-05-08T20:21:32.147Z,98855.75
2023-05-08T20:26:37.222Z,98842.22
2023-05-08T20:31:40.915Z,98837.75
2023-05-08T20:36:45.007Z,98833.81
2023-05-08T20:41:50.426Z,98837.38
2023-05-08T20:46:53.211Z,98844.88
2023-05-08T20:51:56.771Z,98848.56
2023-05-08T20:57:02.007Z,98852.66
2023-05-08T21:02:05.068Z,98851.53
2023-05-08T21:07:07.771Z,98860.03
2023-05-08T21:12:12.060Z,98854.81
2023-05-08T21:17:14.819Z,98855.94
2023-05-08T21:22:17.959Z,98849.16
2023-05-08T21:27:22.589Z,98851.00
2023-05-08T21:32:26.047Z,98839.16
2023-05-08T21:37:28.844Z,98840.69
2023-05-08T21:42:34.116Z,98831.25
2023-05-08T21:47:36.936Z,98828.56
2023-05-08T21:52:39.720Z,98826.75
2023-05-08T21:57:43.930Z,98811.09
2023-05-08T22:02:46.913Z,98814.88
2023-05-08T22:07:49.826Z,98807.84
2023-05-08T22:12:54.121Z,98802.75
2023-05-08T22:17:56.960Z,98798.09
2023-05-08T22:22:59.720Z,98796.97
2023-05-08T22:28:04.006Z,98789.38
2023-05-08T22:33:06.843Z,98787.25
2023-05-08T22:38:09.602Z,98783.31
2023-05-08T22:43:13.718Z,98792.06
2023-05-08T22:48:16.578Z,98780.91
2023-05-08T22:53:19.307Z,98776.84
2023-05-08T22:58:25.037Z,98770.50
2023-05-08T23:03:27.808Z,98777.13
2023-05-08T23:08:30.654Z,98772.19
2023-05-08T23:13:34.713Z,98765.97
2023-05-08T23:18:37.435Z,98757.38
2023-05-08T23:23:40.166Z,98756.69
2023-05-08T23:28:44.276Z,98752.59
2023-05-08T23:33:47.048Z,98749.91
2023-05-08T23:38:49.922Z,98745.28
2023-05-08T23:43:54.765Z,98737.66
2023-05-08T23:48:57.494Z,98738.38
2023-05-08T23:54:00.330Z,98722.84
2023-05-08T23:59:04.553Z,98731.31
